N116JJ KSBP-KSJC
Flight info
| Callsign | N116JJ |
|---|---|
| Flight time | 0h 51m |
| Altitude | 20000 |
| Route | PRB TROXX SILCN6 |
| Aircraft | B58T/L-SDFGRY/C |
Departure
| Time | 2026-04-12 04:32 |
|---|---|
| Airport | San Luis County Regional Airport (KSBP) |
Arrival
| Time | 2026-04-12 05:23 |
|---|---|
| Airport | Norman Y. Mineta San Jose International Airport (KSJC) |
| Time | Latitude | Longitude | Altitude | Speed | Heading |
|---|---|---|---|---|---|
| 2026-04-12 03:47 | 35.23608 | -120.63553 | 207 ft | 0 kts | 295° |
| 2026-04-12 04:15 | 35.23611 | -120.63561 | 195 ft | 1 kts | 295° |
| 2026-04-12 04:17 | 35.23619 | -120.63581 | 208 ft | 0 kts | 285° |
| 2026-04-12 04:17 | 35.23619 | -120.63582 | 208 ft | 0 kts | 285° |
| 2026-04-12 04:18 | 35.23620 | -120.63593 | 205 ft | 2 kts | 270° |
| 2026-04-12 04:18 | 35.23619 | -120.63606 | 204 ft | 5 kts | 255° |
| 2026-04-12 04:18 | 35.23610 | -120.63632 | 199 ft | 1 kts | 238° |
| 2026-04-12 04:19 | 35.23599 | -120.63663 | 201 ft | 8 kts | 274° |
| 2026-04-12 04:19 | 35.23635 | -120.63738 | 197 ft | 12 kts | 305° |
| 2026-04-12 04:19 | 35.23689 | -120.63832 | 197 ft | 14 kts | 305° |
| 2026-04-12 04:19 | 35.23751 | -120.63944 | 196 ft | 17 kts | 303° |
| 2026-04-12 04:20 | 35.23819 | -120.64087 | 190 ft | 22 kts | 303° |
| 2026-04-12 04:20 | 35.23911 | -120.64239 | 182 ft | 18 kts | 318° |
| 2026-04-12 04:20 | 35.23978 | -120.64339 | 179 ft | 15 kts | 304° |
| 2026-04-12 04:20 | 35.24047 | -120.64462 | 175 ft | 20 kts | 304° |
| 2026-04-12 04:21 | 35.24131 | -120.64610 | 170 ft | 18 kts | 306° |
| 2026-04-12 04:21 | 35.24196 | -120.64717 | 170 ft | 16 kts | 302° |
| 2026-04-12 04:21 | 35.24259 | -120.64831 | 167 ft | 13 kts | 303° |
| 2026-04-12 04:21 | 35.24277 | -120.64891 | 166 ft | 6 kts | 256° |
| 2026-04-12 04:22 | 35.24271 | -120.64903 | 166 ft | 0 kts | 225° |
| 2026-04-12 04:31 | 35.24262 | -120.64913 | 166 ft | 7 kts | 219° |
| 2026-04-12 04:31 | 35.24189 | -120.64907 | 167 ft | 17 kts | 123° |
| 2026-04-12 04:31 | 35.24116 | -120.64780 | 170 ft | 19 kts | 124° |
| 2026-04-12 04:32 | 35.23997 | -120.64579 | 174 ft | 60 kts | 125° |
| 2026-04-12 04:32 | 35.23623 | -120.63898 | 304 ft | 118 kts | 129° |
| 2026-04-12 04:32 | 35.23116 | -120.63088 | 834 ft | 121 kts | 139° |
| 2026-04-12 04:32 | 35.22499 | -120.62419 | 1516 ft | 117 kts | 143° |
| 2026-04-12 04:33 | 35.21914 | -120.61711 | 2118 ft | 121 kts | 144° |
| 2026-04-12 04:33 | 35.21323 | -120.60950 | 2677 ft | 127 kts | 142° |
| 2026-04-12 04:33 | 35.20717 | -120.60113 | 3161 ft | 135 kts | 142° |
| 2026-04-12 04:33 | 35.20072 | -120.59240 | 3662 ft | 141 kts | 142° |
| 2026-04-12 04:34 | 35.19401 | -120.58339 | 4173 ft | 146 kts | 142° |
| 2026-04-12 04:34 | 35.18717 | -120.57416 | 4745 ft | 145 kts | 142° |
| 2026-04-12 04:34 | 35.18058 | -120.56517 | 5351 ft | 142 kts | 142° |
| 2026-04-12 04:34 | 35.17402 | -120.55612 | 5978 ft | 142 kts | 142° |
| 2026-04-12 04:35 | 35.16749 | -120.54701 | 6594 ft | 144 kts | 138° |
| 2026-04-12 04:35 | 35.16407 | -120.53982 | 6998 ft | 149 kts | 128° |
| 2026-04-12 04:35 | 35.15775 | -120.52473 | 7804 ft | 151 kts | 128° |
| 2026-04-12 04:35 | 35.15314 | -120.51326 | 8439 ft | 149 kts | 128° |
| 2026-04-12 04:36 | 35.14861 | -120.50194 | 9071 ft | 147 kts | 129° |
| 2026-04-12 04:36 | 35.14565 | -120.49449 | 9498 ft | 146 kts | 129° |
| 2026-04-12 04:36 | 35.14116 | -120.48327 | 10096 ft | 149 kts | 130° |
| 2026-04-12 04:36 | 35.13647 | -120.47163 | 10581 ft | 157 kts | 129° |
| 2026-04-12 04:37 | 35.13400 | -120.45786 | 11072 ft | 175 kts | 103° |
| 2026-04-12 04:37 | 35.13320 | -120.44284 | 11563 ft | 177 kts | 106° |
| 2026-04-12 04:37 | 35.13213 | -120.42780 | 12080 ft | 180 kts | 105° |
| 2026-04-12 04:37 | 35.13111 | -120.41233 | 12607 ft | 184 kts | 105° |
| 2026-04-12 04:38 | 35.13007 | -120.39679 | 13115 ft | 186 kts | 107° |
| 2026-04-12 04:38 | 35.12898 | -120.38086 | 13646 ft | 191 kts | 108° |
| 2026-04-12 04:38 | 35.12787 | -120.36443 | 14140 ft | 195 kts | 108° |
| 2026-04-12 04:38 | 35.12741 | -120.34770 | 14610 ft | 205 kts | 91° |
| 2026-04-12 04:39 | 35.13386 | -120.33193 | 15085 ft | 217 kts | 41° |
| 2026-04-12 04:39 | 35.14666 | -120.32400 | 15579 ft | 197 kts | 351° |
| 2026-04-12 04:39 | 35.15834 | -120.32703 | 16079 ft | 152 kts | 301° |
| 2026-04-12 04:39 | 35.16566 | -120.33534 | 16602 ft | 149 kts | 298° |
| 2026-04-12 04:40 | 35.17518 | -120.34240 | 17134 ft | 166 kts | 311° |
| 2026-04-12 04:40 | 35.18579 | -120.34863 | 17672 ft | 171 kts | 313° |
| 2026-04-12 04:40 | 35.19667 | -120.35477 | 18213 ft | 172 kts | 313° |
| 2026-04-12 04:40 | 35.20771 | -120.36109 | 18601 ft | 178 kts | 313° |
| 2026-04-12 04:41 | 35.21903 | -120.36758 | 18966 ft | 185 kts | 313° |
| 2026-04-12 04:41 | 35.23099 | -120.37439 | 19331 ft | 193 kts | 314° |
| 2026-04-12 04:41 | 35.24331 | -120.38138 | 19702 ft | 198 kts | 314° |
| 2026-04-12 04:41 | 35.25596 | -120.38861 | 19948 ft | 207 kts | 315° |
| 2026-04-12 04:42 | 35.26964 | -120.39658 | 19963 ft | 227 kts | 316° |
| 2026-04-12 04:42 | 35.28456 | -120.40506 | 19969 ft | 243 kts | 318° |
| 2026-04-12 04:42 | 35.30004 | -120.41368 | 19961 ft | 251 kts | 319° |
| 2026-04-12 04:43 | 35.33226 | -120.43197 | 19961 ft | 258 kts | 319° |
| 2026-04-12 04:43 | 35.34864 | -120.44135 | 19953 ft | 261 kts | 319° |
| 2026-04-12 04:43 | 35.36512 | -120.45075 | 19962 ft | 262 kts | 319° |
| 2026-04-12 04:43 | 35.38171 | -120.46021 | 19961 ft | 263 kts | 319° |
| 2026-04-12 04:44 | 35.39832 | -120.46970 | 19950 ft | 262 kts | 319° |
| 2026-04-12 04:44 | 35.41465 | -120.47904 | 19956 ft | 262 kts | 319° |
| 2026-04-12 04:44 | 35.43119 | -120.48851 | 19954 ft | 262 kts | 319° |
| 2026-04-12 04:44 | 35.44778 | -120.49800 | 19953 ft | 263 kts | 319° |
| 2026-04-12 04:45 | 35.46440 | -120.50753 | 19950 ft | 264 kts | 319° |
| 2026-04-12 04:45 | 35.48091 | -120.51700 | 19941 ft | 265 kts | 319° |
| 2026-04-12 04:45 | 35.49779 | -120.52667 | 19946 ft | 265 kts | 319° |
| 2026-04-12 04:45 | 35.51451 | -120.53626 | 19936 ft | 265 kts | 319° |
| 2026-04-12 04:46 | 35.53126 | -120.54587 | 19945 ft | 265 kts | 319° |
| 2026-04-12 04:46 | 35.54779 | -120.55535 | 19939 ft | 265 kts | 319° |
| 2026-04-12 04:46 | 35.56450 | -120.56495 | 19942 ft | 265 kts | 319° |
| 2026-04-12 04:46 | 35.58128 | -120.57460 | 19941 ft | 266 kts | 319° |
| 2026-04-12 04:47 | 35.59808 | -120.58426 | 19937 ft | 266 kts | 319° |
| 2026-04-12 04:47 | 35.61486 | -120.59391 | 19935 ft | 266 kts | 319° |
| 2026-04-12 04:47 | 35.63168 | -120.60358 | 19932 ft | 266 kts | 319° |
| 2026-04-12 04:47 | 35.64826 | -120.61312 | 19961 ft | 266 kts | 319° |
| 2026-04-12 04:48 | 35.66508 | -120.62283 | 19928 ft | 267 kts | 320° |
| 2026-04-12 04:48 | 35.68021 | -120.63458 | 19927 ft | 250 kts | 306° |
| 2026-04-12 04:48 | 35.69364 | -120.64816 | 19924 ft | 250 kts | 306° |
| 2026-04-12 04:48 | 35.70723 | -120.66155 | 19924 ft | 251 kts | 307° |
| 2026-04-12 04:49 | 35.72082 | -120.67494 | 19925 ft | 250 kts | 306° |
| 2026-04-12 04:49 | 35.73437 | -120.68838 | 19925 ft | 250 kts | 306° |
| 2026-04-12 04:49 | 35.74789 | -120.70186 | 19927 ft | 250 kts | 306° |
| 2026-04-12 04:49 | 35.76146 | -120.71536 | 19926 ft | 250 kts | 306° |
| 2026-04-12 04:50 | 35.77486 | -120.72863 | 19921 ft | 251 kts | 306° |
| 2026-04-12 04:50 | 35.78845 | -120.74210 | 19924 ft | 251 kts | 306° |
| 2026-04-12 04:50 | 35.80203 | -120.75560 | 19925 ft | 251 kts | 306° |
| 2026-04-12 04:50 | 35.81560 | -120.76910 | 19925 ft | 251 kts | 306° |
| 2026-04-12 04:51 | 35.82922 | -120.78266 | 19922 ft | 252 kts | 307° |
| 2026-04-12 04:51 | 35.84287 | -120.79625 | 19922 ft | 253 kts | 307° |
| 2026-04-12 04:51 | 35.85657 | -120.80988 | 19920 ft | 253 kts | 307° |
| 2026-04-12 04:51 | 35.87026 | -120.82351 | 19921 ft | 253 kts | 307° |
| 2026-04-12 04:52 | 35.88379 | -120.83700 | 19948 ft | 252 kts | 307° |
| 2026-04-12 04:52 | 35.89745 | -120.85062 | 19945 ft | 253 kts | 307° |
| 2026-04-12 04:52 | 35.91117 | -120.86431 | 19943 ft | 253 kts | 307° |
| 2026-04-12 04:52 | 35.92489 | -120.87801 | 19942 ft | 253 kts | 307° |
| 2026-04-12 04:53 | 35.93862 | -120.89171 | 19944 ft | 253 kts | 307° |
| 2026-04-12 04:53 | 35.95237 | -120.90546 | 19946 ft | 253 kts | 307° |
| 2026-04-12 04:53 | 35.97964 | -120.93270 | 19941 ft | 253 kts | 307° |
| 2026-04-12 04:54 | 35.99334 | -120.94642 | 19940 ft | 254 kts | 308° |
| 2026-04-12 04:54 | 36.00711 | -120.96021 | 19952 ft | 256 kts | 308° |
| 2026-04-12 04:54 | 36.02148 | -120.97361 | 19941 ft | 259 kts | 310° |
| 2026-04-12 04:54 | 36.03574 | -120.98728 | 19942 ft | 259 kts | 309° |
| 2026-04-12 04:55 | 36.04995 | -121.00096 | 19942 ft | 260 kts | 309° |
| 2026-04-12 04:55 | 36.06434 | -121.01461 | 19943 ft | 260 kts | 309° |
| 2026-04-12 04:55 | 36.07859 | -121.02811 | 19944 ft | 260 kts | 309° |
| 2026-04-12 04:55 | 36.09298 | -121.04178 | 19938 ft | 260 kts | 309° |
| 2026-04-12 04:56 | 36.10738 | -121.05549 | 19938 ft | 260 kts | 309° |
| 2026-04-12 04:56 | 36.12176 | -121.06918 | 19936 ft | 260 kts | 309° |
| 2026-04-12 04:56 | 36.13596 | -121.08269 | 19939 ft | 260 kts | 309° |
| 2026-04-12 04:56 | 36.15037 | -121.09641 | 19939 ft | 260 kts | 309° |
| 2026-04-12 04:57 | 36.16473 | -121.11014 | 19933 ft | 261 kts | 309° |
| 2026-04-12 04:57 | 36.17917 | -121.12391 | 19936 ft | 262 kts | 310° |
| 2026-04-12 04:57 | 36.19366 | -121.13771 | 19935 ft | 263 kts | 310° |
| 2026-04-12 04:57 | 36.20820 | -121.15157 | 19935 ft | 263 kts | 310° |
| 2026-04-12 04:58 | 36.22256 | -121.16528 | 19934 ft | 264 kts | 310° |
| 2026-04-12 04:58 | 36.23712 | -121.17919 | 19934 ft | 264 kts | 310° |
| 2026-04-12 04:58 | 36.25172 | -121.19314 | 19937 ft | 264 kts | 309° |
| 2026-04-12 04:58 | 36.26629 | -121.20707 | 19938 ft | 264 kts | 309° |
| 2026-04-12 04:59 | 36.28082 | -121.22097 | 19938 ft | 264 kts | 309° |
| 2026-04-12 04:59 | 36.29535 | -121.23488 | 19938 ft | 264 kts | 309° |
| 2026-04-12 04:59 | 36.30989 | -121.24880 | 19941 ft | 265 kts | 309° |
| 2026-04-12 04:59 | 36.32439 | -121.26272 | 19934 ft | 266 kts | 309° |
| 2026-04-12 05:00 | 36.33908 | -121.27679 | 19933 ft | 267 kts | 309° |
| 2026-04-12 05:00 | 36.35384 | -121.29092 | 19934 ft | 268 kts | 309° |
| 2026-04-12 05:00 | 36.36852 | -121.30503 | 19936 ft | 268 kts | 309° |
| 2026-04-12 05:00 | 36.38329 | -121.31928 | 19937 ft | 268 kts | 309° |
| 2026-04-12 05:01 | 36.39801 | -121.33347 | 19938 ft | 268 kts | 309° |
| 2026-04-12 05:01 | 36.41399 | -121.34626 | 19936 ft | 279 kts | 321° |
| 2026-04-12 05:01 | 36.43192 | -121.35622 | 19937 ft | 285 kts | 327° |
| 2026-04-12 05:01 | 36.45050 | -121.36459 | 19937 ft | 287 kts | 329° |
| 2026-04-12 05:02 | 36.46924 | -121.37320 | 19941 ft | 286 kts | 327° |
| 2026-04-12 05:02 | 36.48773 | -121.38227 | 19938 ft | 286 kts | 327° |
| 2026-04-12 05:02 | 36.50637 | -121.39144 | 19932 ft | 288 kts | 328° |
| 2026-04-12 05:02 | 36.52510 | -121.40050 | 19858 ft | 291 kts | 328° |
| 2026-04-12 05:03 | 36.54424 | -121.40977 | 19663 ft | 297 kts | 329° |
| 2026-04-12 05:03 | 36.56354 | -121.41909 | 19553 ft | 298 kts | 329° |
| 2026-04-12 05:03 | 36.58268 | -121.42836 | 19433 ft | 299 kts | 329° |
| 2026-04-12 05:03 | 36.60207 | -121.43778 | 19313 ft | 298 kts | 329° |
| 2026-04-12 05:04 | 36.62146 | -121.44720 | 19196 ft | 299 kts | 329° |
| 2026-04-12 05:04 | 36.64081 | -121.45661 | 19074 ft | 298 kts | 329° |
| 2026-04-12 05:04 | 36.66017 | -121.46603 | 18954 ft | 298 kts | 329° |
| 2026-04-12 05:04 | 36.67931 | -121.47534 | 18838 ft | 298 kts | 329° |
| 2026-04-12 05:05 | 36.69863 | -121.48476 | 18728 ft | 298 kts | 329° |
| 2026-04-12 05:05 | 36.71794 | -121.49415 | 18605 ft | 297 kts | 329° |
| 2026-04-12 05:05 | 36.73720 | -121.50353 | 18486 ft | 296 kts | 329° |
| 2026-04-12 05:05 | 36.75645 | -121.51294 | 18204 ft | 301 kts | 330° |
| 2026-04-12 05:06 | 36.77619 | -121.52262 | 17697 ft | 303 kts | 330° |
| 2026-04-12 05:06 | 36.79564 | -121.53203 | 17163 ft | 295 kts | 330° |
| 2026-04-12 05:06 | 36.81440 | -121.54118 | 16636 ft | 290 kts | 330° |
| 2026-04-12 05:06 | 36.83299 | -121.55028 | 16111 ft | 285 kts | 330° |
| 2026-04-12 05:07 | 36.85133 | -121.55923 | 15604 ft | 281 kts | 330° |
| 2026-04-12 05:07 | 36.86939 | -121.56810 | 15120 ft | 277 kts | 329° |
| 2026-04-12 05:07 | 36.88716 | -121.57711 | 14627 ft | 273 kts | 329° |
| 2026-04-12 05:07 | 36.90467 | -121.58609 | 14137 ft | 271 kts | 329° |
| 2026-04-12 05:08 | 36.92221 | -121.59465 | 13657 ft | 270 kts | 330° |
| 2026-04-12 05:08 | 36.93954 | -121.60338 | 13117 ft | 267 kts | 329° |
| 2026-04-12 05:08 | 36.95679 | -121.61206 | 12581 ft | 265 kts | 330° |
| 2026-04-12 05:08 | 36.97370 | -121.62024 | 12072 ft | 262 kts | 330° |
| 2026-04-12 05:09 | 36.99088 | -121.62853 | 11557 ft | 269 kts | 329° |
| 2026-04-12 05:09 | 37.00855 | -121.63712 | 11063 ft | 275 kts | 331° |
| 2026-04-12 05:09 | 37.02652 | -121.64580 | 10577 ft | 278 kts | 331° |
| 2026-04-12 05:09 | 37.04464 | -121.65464 | 10102 ft | 279 kts | 331° |
| 2026-04-12 05:10 | 37.06277 | -121.66350 | 9604 ft | 279 kts | 330° |
| 2026-04-12 05:10 | 37.08079 | -121.67228 | 9066 ft | 277 kts | 331° |
| 2026-04-12 05:10 | 37.09867 | -121.68098 | 8551 ft | 274 kts | 331° |
| 2026-04-12 05:10 | 37.11630 | -121.68958 | 8023 ft | 270 kts | 331° |
| 2026-04-12 05:11 | 37.13337 | -121.69789 | 7514 ft | 259 kts | 331° |
| 2026-04-12 05:11 | 37.14911 | -121.70549 | 7003 ft | 226 kts | 330° |
| 2026-04-12 05:11 | 37.16285 | -121.71262 | 6484 ft | 204 kts | 324° |
| 2026-04-12 05:11 | 37.17556 | -121.71944 | 5955 ft | 188 kts | 316° |
| 2026-04-12 05:12 | 37.18258 | -121.73135 | 5421 ft | 160 kts | 276° |
| 2026-04-12 05:12 | 37.18098 | -121.74381 | 5111 ft | 136 kts | 239° |
| 2026-04-12 05:12 | 37.17656 | -121.75319 | 5102 ft | 118 kts | 238° |
| 2026-04-12 05:12 | 37.17244 | -121.76171 | 5101 ft | 111 kts | 238° |
| 2026-04-12 05:13 | 37.16813 | -121.76997 | 5115 ft | 126 kts | 237° |
| 2026-04-12 05:13 | 37.16291 | -121.78015 | 5135 ft | 147 kts | 239° |
| 2026-04-12 05:13 | 37.15635 | -121.79051 | 5123 ft | 160 kts | 218° |
| 2026-04-12 05:13 | 37.14528 | -121.79348 | 5119 ft | 176 kts | 179° |
| 2026-04-12 05:14 | 37.13443 | -121.78540 | 5122 ft | 193 kts | 142° |
| 2026-04-12 05:14 | 37.12586 | -121.77230 | 5128 ft | 193 kts | 136° |
| 2026-04-12 05:14 | 37.11820 | -121.75827 | 5128 ft | 203 kts | 119° |
| 2026-04-12 05:14 | 37.11747 | -121.74015 | 5123 ft | 217 kts | 79° |
| 2026-04-12 05:15 | 37.12380 | -121.72351 | 5116 ft | 206 kts | 60° |
| 2026-04-12 05:15 | 37.13101 | -121.70833 | 5119 ft | 200 kts | 60° |
| 2026-04-12 05:15 | 37.13818 | -121.69330 | 5112 ft | 201 kts | 58° |
| 2026-04-12 05:15 | 37.14827 | -121.68208 | 5112 ft | 189 kts | 16° |
| 2026-04-12 05:16 | 37.16053 | -121.68158 | 5103 ft | 171 kts | 328° |
| 2026-04-12 05:16 | 37.17004 | -121.68928 | 5111 ft | 160 kts | 310° |
| 2026-04-12 05:16 | 37.17695 | -121.69932 | 5115 ft | 152 kts | 294° |
| 2026-04-12 05:16 | 37.18233 | -121.71067 | 5015 ft | 153 kts | 287° |
| 2026-04-12 05:17 | 37.18683 | -121.72376 | 4524 ft | 171 kts | 288° |
| 2026-04-12 05:17 | 37.19268 | -121.73723 | 4017 ft | 174 kts | 292° |
| 2026-04-12 05:17 | 37.19898 | -121.74973 | 3511 ft | 169 kts | 302° |
| 2026-04-12 05:17 | 37.20727 | -121.76007 | 3039 ft | 166 kts | 310° |
| 2026-04-12 05:18 | 37.21536 | -121.76922 | 3004 ft | 151 kts | 310° |
| 2026-04-12 05:18 | 37.22317 | -121.77800 | 3002 ft | 157 kts | 313° |
| 2026-04-12 05:18 | 37.23181 | -121.78717 | 3009 ft | 168 kts | 317° |
| 2026-04-12 05:18 | 37.24087 | -121.79718 | 3012 ft | 178 kts | 316° |
| 2026-04-12 05:19 | 37.25049 | -121.80756 | 2864 ft | 181 kts | 314° |
| 2026-04-12 05:19 | 37.25939 | -121.81726 | 2626 ft | 160 kts | 313° |
| 2026-04-12 05:19 | 37.26741 | -121.82601 | 2437 ft | 149 kts | 313° |
| 2026-04-12 05:19 | 37.27526 | -121.83458 | 2252 ft | 152 kts | 315° |
| 2026-04-12 05:20 | 37.28338 | -121.84327 | 2048 ft | 152 kts | 315° |
| 2026-04-12 05:20 | 37.29111 | -121.85170 | 1903 ft | 134 kts | 314° |
| 2026-04-12 05:20 | 37.29767 | -121.85901 | 1643 ft | 122 kts | 315° |
| 2026-04-12 05:20 | 37.30389 | -121.86596 | 1413 ft | 119 kts | 317° |
| 2026-04-12 05:21 | 37.31009 | -121.87273 | 1238 ft | 117 kts | 317° |
| 2026-04-12 05:21 | 37.31622 | -121.87930 | 1074 ft | 115 kts | 317° |
| 2026-04-12 05:21 | 37.32205 | -121.88572 | 979 ft | 110 kts | 318° |
| 2026-04-12 05:21 | 37.32801 | -121.89203 | 815 ft | 113 kts | 320° |
| 2026-04-12 05:22 | 37.33201 | -121.89624 | 724 ft | 113 kts | 318° |
| 2026-04-12 05:22 | 37.33990 | -121.90505 | 512 ft | 116 kts | 319° |
| 2026-04-12 05:22 | 37.34588 | -121.91159 | 387 ft | 112 kts | 319° |
| 2026-04-12 05:22 | 37.35177 | -121.91805 | 221 ft | 112 kts | 319° |
| 2026-04-12 05:23 | 37.35751 | -121.92424 | 90 ft | 105 kts | 319° |
| 2026-04-12 05:23 | 37.36084 | -121.92785 | 65 ft | 84 kts | 318° |
| 2026-04-12 05:23 | 37.36448 | -121.93185 | 64 ft | 58 kts | 320° |
| 2026-04-12 05:23 | 37.36663 | -121.93427 | 64 ft | 16 kts | 304° |
| 2026-04-12 05:24 | 37.36676 | -121.93520 | 67 ft | 11 kts | 239° |
| 2026-04-12 05:24 | 37.36648 | -121.93560 | 65 ft | 0 kts | 226° |
| 2026-04-12 05:25 | 37.36625 | -121.93592 | 64 ft | 13 kts | 229° |
| 2026-04-12 05:25 | 37.36542 | -121.93612 | 67 ft | 18 kts | 133° |
| 2026-04-12 05:25 | 37.36420 | -121.93474 | 64 ft | 28 kts | 139° |
| 2026-04-12 05:25 | 37.36292 | -121.93329 | 65 ft | 8 kts | 147° |
| 2026-04-12 05:26 | 37.36213 | -121.93245 | 67 ft | 21 kts | 141° |
| 2026-04-12 05:26 | 37.36107 | -121.93131 | 61 ft | 14 kts | 140° |
| 2026-04-12 05:26 | 37.36044 | -121.93063 | 65 ft | 11 kts | 134° |
| 2026-04-12 05:26 | 37.35987 | -121.93001 | 64 ft | 11 kts | 141° |
| 2026-04-12 05:27 | 37.35929 | -121.92939 | 66 ft | 11 kts | 139° |
| 2026-04-12 05:27 | 37.35868 | -121.92871 | 66 ft | 12 kts | 137° |
| 2026-04-12 05:27 | 37.35807 | -121.92804 | 63 ft | 12 kts | 139° |
| 2026-04-12 05:27 | 37.35734 | -121.92726 | 67 ft | 17 kts | 140° |
| 2026-04-12 05:28 | 37.35657 | -121.92645 | 67 ft | 9 kts | 156° |